createdAt,value
2019-04-05T00:01:27.979Z,2.10
2019-04-05T00:03:57.055Z,2.20
2019-04-05T00:06:26.221Z,2.73
2019-04-05T00:08:55.059Z,2.30
2019-04-05T00:11:24.364Z,2.80
2019-04-05T00:13:53.650Z,2.77
2019-04-05T00:16:22.863Z,2.20
2019-04-05T00:18:52.047Z,2.93
2019-04-05T00:21:21.242Z,8.03
2019-04-05T00:23:50.435Z,4.87
2019-04-05T00:26:19.340Z,3.17
2019-04-05T00:28:48.273Z,2.33
2019-04-05T00:31:17.443Z,2.27
2019-04-05T00:33:46.566Z,2.17
2019-04-05T00:36:15.723Z,1.80
2019-04-05T00:38:44.723Z,1.87
2019-04-05T00:41:13.694Z,1.83
2019-04-05T00:43:42.631Z,2.13
2019-04-05T00:46:11.794Z,1.63
2019-04-05T00:48:41.024Z,1.73
2019-04-05T00:51:10.219Z,1.80
2019-04-05T00:53:39.712Z,1.70
2019-04-05T00:56:08.925Z,2.90
2019-04-05T00:58:38.131Z,3.33
2019-04-05T01:01:07.104Z,2.40
2019-04-05T01:03:36.455Z,1.30
2019-04-05T01:06:05.548Z,1.50
2019-04-05T01:08:34.855Z,1.30
2019-04-05T01:11:03.820Z,1.20
2019-04-05T01:13:33.556Z,1.50
2019-04-05T01:16:02.585Z,1.20
2019-04-05T01:18:31.491Z,1.47
2019-04-05T01:21:02.991Z,1.20
2019-04-05T01:23:32.310Z,1.53
2019-04-05T01:26:02.894Z,1.40
2019-04-05T01:28:31.870Z,1.43
2019-04-05T01:31:01.059Z,1.50
2019-04-05T01:33:30.558Z,1.17
2019-04-05T01:36:00.171Z,1.30
2019-04-05T01:38:29.547Z,0.90
2019-04-05T01:40:59.631Z,1.20
2019-04-05T01:43:28.811Z,1.00
2019-04-05T01:45:58.378Z,1.23
2019-04-05T01:48:27.291Z,1.20
2019-04-05T01:50:56.898Z,1.10
2019-04-05T01:53:25.888Z,1.40
2019-04-05T01:55:54.869Z,1.30
2019-04-05T01:58:24.483Z,2.20
2019-04-05T02:00:53.654Z,2.27
2019-04-05T02:03:22.962Z,2.60
2019-04-05T02:05:52.273Z,2.83
2019-04-05T02:08:21.818Z,3.20
2019-04-05T02:10:51.858Z,3.43
2019-04-05T02:13:20.953Z,4.20
2019-04-05T02:15:50.715Z,4.50
2019-04-05T02:18:19.691Z,4.73
2019-04-05T02:20:49.231Z,4.43
2019-04-05T02:23:18.527Z,4.73
2019-04-05T02:25:47.609Z,4.13
2019-04-05T02:28:16.836Z,4.83
2019-04-05T02:30:45.826Z,6.07
2019-04-05T02:33:15.354Z,6.30
2019-04-05T02:35:44.632Z,4.87
2019-04-05T02:38:13.995Z,5.33
2019-04-05T02:40:44.411Z,8.60
2019-04-05T02:43:15.744Z,7.40
2019-04-05T02:45:47.241Z,4.30
2019-04-05T02:48:18.293Z,3.30
2019-04-05T02:50:50.773Z,3.73
2019-04-05T02:53:20.877Z,3.87
2019-04-05T02:55:51.140Z,4.83
2019-04-05T02:58:21.835Z,4.50
2019-04-05T03:00:51.911Z,3.43
2019-04-05T03:03:21.297Z,3.77
2019-04-05T03:05:50.561Z,2.87
2019-04-05T03:08:20.148Z,3.60
2019-04-05T03:10:56.137Z,3.40
2019-04-05T03:13:26.860Z,3.63
2019-04-05T03:15:59.462Z,3.90
2019-04-05T03:18:30.561Z,3.57
2019-04-05T03:21:02.836Z,4.13
2019-04-05T03:23:34.171Z,4.47
2019-04-05T03:26:06.035Z,3.90
2019-04-05T03:28:37.963Z,4.90
2019-04-05T03:31:06.956Z,4.33
2019-04-05T03:33:36.220Z,4.13
2019-04-05T03:36:05.199Z,5.07
2019-04-05T03:38:34.636Z,4.33
2019-04-05T03:41:04.112Z,4.47
2019-04-05T03:43:33.979Z,3.83
2019-04-05T03:46:03.263Z,4.50
2019-04-05T03:48:33.715Z,4.40
2019-04-05T03:51:02.914Z,4.37
2019-04-05T03:53:32.377Z,11.80
2019-04-05T03:56:01.971Z,31.03
2019-04-05T03:58:31.092Z,32.63
2019-04-05T04:01:00.190Z,20.77
2019-04-05T04:03:29.478Z,16.73
2019-04-05T04:05:58.724Z,14.70
2019-04-05T04:08:27.782Z,16.93
2019-04-05T04:10:56.879Z,13.90
2019-04-05T04:13:26.581Z,7.33
2019-04-05T04:15:55.737Z,4.00
2019-04-05T04:18:25.284Z,4.27
2019-04-05T04:20:58.056Z,4.33
2019-04-05T04:23:30.019Z,5.10
2019-04-05T04:25:59.608Z,6.10
2019-04-05T04:28:29.772Z,6.43
2019-04-05T04:30:58.842Z,7.07
2019-04-05T04:33:28.240Z,7.23
2019-04-05T04:35:57.780Z,7.23
2019-04-05T04:38:27.746Z,8.80
2019-04-05T04:40:57.103Z,8.47
2019-04-05T04:43:27.019Z,7.73
2019-04-05T04:45:56.256Z,7.80
2019-04-05T04:48:25.393Z,9.07
2019-04-05T04:50:54.354Z,8.40
2019-04-05T04:53:24.419Z,8.33
2019-04-05T04:55:54.128Z,8.20
2019-04-05T04:58:23.683Z,8.60
2019-04-05T05:00:53.311Z,8.47
2019-04-05T05:03:22.682Z,9.67
2019-04-05T05:05:52.031Z,8.03
2019-04-05T05:08:21.820Z,9.10
2019-04-05T05:10:51.332Z,9.30
2019-04-05T05:13:21.622Z,9.03
2019-04-05T05:15:50.695Z,8.70
2019-04-05T05:18:20.569Z,7.60
2019-04-05T05:20:49.922Z,7.70
2019-04-05T05:23:19.235Z,7.93
2019-04-05T05:25:48.916Z,8.07
2019-04-05T05:28:18.592Z,7.00
2019-04-05T05:30:47.832Z,7.10
2019-04-05T05:33:17.291Z,7.10
2019-04-05T05:35:47.005Z,6.80
2019-04-05T05:38:16.380Z,6.87
2019-04-05T05:40:45.543Z,5.30
2019-04-05T05:43:14.711Z,8.23
2019-04-05T05:45:44.096Z,8.10
2019-04-05T05:48:13.739Z,12.43
2019-04-05T05:50:43.690Z,10.03
2019-04-05T05:53:13.275Z,8.83
2019-04-05T05:55:42.793Z,8.87
2019-04-05T05:58:11.831Z,8.23
2019-04-05T06:00:41.054Z,7.67
2019-04-05T06:03:11.328Z,7.63
2019-04-05T06:05:42.110Z,8.07
2019-04-05T06:08:11.375Z,8.93
2019-04-05T06:10:40.701Z,8.30
2019-04-05T06:13:09.814Z,5.80
2019-04-05T06:15:39.316Z,5.30
2019-04-05T06:18:12.055Z,5.13
2019-04-05T06:20:39.398Z,7.83
2019-04-05T06:23:08.748Z,15.93
2019-04-05T06:25:38.158Z,11.13
2019-04-05T06:28:07.260Z,15.67
2019-04-05T06:30:36.843Z,8.07
2019-04-05T06:33:05.804Z,8.00
2019-04-05T06:35:35.551Z,20.77
2019-04-05T06:38:04.859Z,7.07
2019-04-05T06:40:40.811Z,6.87
2019-04-05T06:43:06.628Z,6.57
2019-04-05T06:45:37.014Z,6.17
2019-04-05T06:48:18.564Z,6.27
2019-04-05T06:50:37.473Z,7.33
2019-04-05T06:53:06.618Z,7.00
2019-04-05T06:55:36.012Z,7.10
2019-04-05T06:58:05.053Z,8.37
2019-04-05T07:00:34.695Z,7.40
2019-04-05T07:03:03.902Z,7.03
2019-04-05T07:05:33.394Z,7.80
2019-04-05T07:08:03.215Z,7.03
2019-04-05T07:10:33.047Z,8.03
2019-04-05T07:13:02.324Z,8.57
2019-04-05T07:15:31.998Z,8.27
2019-04-05T07:18:01.768Z,9.43
2019-04-05T07:20:30.852Z,9.83
2019-04-05T07:23:00.352Z,8.17
2019-04-05T07:25:30.016Z,8.60
2019-04-05T07:27:59.357Z,16.07
2019-04-05T07:30:29.093Z,10.83
2019-04-05T07:32:58.523Z,6.83
2019-04-05T07:35:33.834Z,6.47
2019-04-05T07:37:58.934Z,7.37
2019-04-05T07:40:28.461Z,7.27
2019-04-05T07:42:58.414Z,7.17
2019-04-05T07:45:31.856Z,8.60
2019-04-05T07:48:00.991Z,7.40
2019-04-05T07:50:29.830Z,7.87
2019-04-05T07:52:59.352Z,7.60
2019-04-05T07:55:28.259Z,7.33
2019-04-05T07:57:57.579Z,7.40
2019-04-05T08:00:51.767Z,8.67
2019-04-05T08:03:21.561Z,7.53
2019-04-05T08:05:51.441Z,7.40
2019-04-05T08:08:30.399Z,7.23
2019-04-05T08:10:59.599Z,7.03
2019-04-05T08:13:31.848Z,7.60
2019-04-05T08:16:01.410Z,7.50
2019-04-05T08:18:30.649Z,7.53
2019-04-05T08:20:59.746Z,6.97
2019-04-05T08:23:28.983Z,8.17
2019-04-05T08:25:58.227Z,8.17
2019-04-05T08:28:29.672Z,7.07
2019-04-05T08:30:58.882Z,7.93
2019-04-05T08:33:28.334Z,8.07
2019-04-05T08:35:57.549Z,8.40
2019-04-05T08:38:27.088Z,8.47
2019-04-05T08:40:56.295Z,9.00
2019-04-05T08:43:25.624Z,7.83
2019-04-05T08:45:54.891Z,9.30
2019-04-05T08:48:24.438Z,9.30
2019-04-05T08:50:53.720Z,8.30
2019-04-05T08:53:23.259Z,8.87
2019-04-05T08:55:52.603Z,8.70
2019-04-05T08:58:32.837Z,8.33
2019-04-05T09:00:52.375Z,8.30
2019-04-05T09:03:21.935Z,8.03
2019-04-05T09:05:51.023Z,8.10
2019-04-05T09:08:21.546Z,7.47
2019-04-05T09:10:51.085Z,7.83
2019-04-05T09:13:20.361Z,7.93
2019-04-05T09:15:49.203Z,7.50
2019-04-05T09:18:18.360Z,7.67
2019-04-05T09:20:47.863Z,7.80
2019-04-05T09:23:16.958Z,6.60
2019-04-05T09:25:46.365Z,6.87
2019-04-05T09:28:15.829Z,6.83
2019-04-05T09:30:45.383Z,8.50
2019-04-05T09:33:14.783Z,8.50
2019-04-05T09:35:44.600Z,7.40
2019-04-05T09:38:14.083Z,7.17
2019-04-05T09:40:43.770Z,7.60
2019-04-05T09:43:13.112Z,6.30
2019-04-05T09:45:42.516Z,7.07
2019-04-05T09:48:11.723Z,8.40
2019-04-05T09:50:40.808Z,7.57
2019-04-05T09:53:09.948Z,8.07
2019-04-05T09:55:39.063Z,9.03
2019-04-05T09:58:10.083Z,8.40
2019-04-05T10:00:40.037Z,7.20
2019-04-05T10:03:09.311Z,7.67
2019-04-05T10:05:38.552Z,7.20
2019-04-05T10:08:07.807Z,8.40
2019-04-05T10:10:37.306Z,6.73
2019-04-05T10:13:06.204Z,7.70
2019-04-05T10:15:35.388Z,7.97
2019-04-05T10:18:05.045Z,8.10
2019-04-05T10:20:35.044Z,6.63
2019-04-05T10:23:04.631Z,6.60
2019-04-05T10:25:34.009Z,6.90
2019-04-05T10:28:03.732Z,7.10
2019-04-05T10:30:32.967Z,5.90
2019-04-05T10:33:01.812Z,6.33
2019-04-05T10:35:32.094Z,5.70
2019-04-05T10:38:01.475Z,6.93
2019-04-05T10:40:30.619Z,6.43
2019-04-05T10:42:59.839Z,6.90
2019-04-05T10:45:29.646Z,7.13
2019-04-05T10:47:59.802Z,6.33
2019-04-05T10:50:28.722Z,6.60
2019-04-05T10:52:57.895Z,6.13
2019-04-05T10:55:27.034Z,7.13
2019-04-05T10:57:56.529Z,6.50
2019-04-05T11:00:25.830Z,6.93
2019-04-05T11:02:55.586Z,6.43
2019-04-05T11:05:24.905Z,4.73
2019-04-05T11:07:54.802Z,4.87
2019-04-05T11:10:23.797Z,5.73
2019-04-05T11:12:53.432Z,6.20
2019-04-05T11:15:22.690Z,6.13
2019-04-05T11:17:52.631Z,5.53
2019-04-05T11:20:22.064Z,6.27
2019-04-05T11:22:51.420Z,6.73
2019-04-05T11:25:20.955Z,6.67
2019-04-05T11:27:50.517Z,6.27
2019-04-05T11:30:40.930Z,6.53
2019-04-05T11:33:10.809Z,5.87
2019-04-05T11:35:40.038Z,5.87
2019-04-05T11:38:09.231Z,5.40
2019-04-05T11:40:40.171Z,5.73
2019-04-05T11:43:09.757Z,6.13
2019-04-05T11:45:38.763Z,9.23
2019-04-05T11:48:08.575Z,13.27
2019-04-05T11:50:37.630Z,6.27
2019-04-05T11:53:06.651Z,5.17
2019-04-05T11:55:35.565Z,7.97
2019-04-05T11:58:04.551Z,11.87
2019-04-05T12:00:48.310Z,10.10
2019-04-05T12:03:17.666Z,10.87
2019-04-05T12:05:46.791Z,6.03
2019-04-05T12:08:16.164Z,6.00
2019-04-05T12:10:45.683Z,6.10
2019-04-05T12:13:14.830Z,6.33
2019-04-05T12:15:43.662Z,5.13
2019-04-05T12:18:16.715Z,5.90
2019-04-05T12:20:52.290Z,5.47
2019-04-05T12:23:14.942Z,5.10
2019-04-05T12:25:44.142Z,4.97
2019-04-05T12:28:13.455Z,5.43
2019-04-05T12:30:45.951Z,6.27
2019-04-05T12:33:19.318Z,6.00
2019-04-05T12:35:46.184Z,4.80
2019-04-05T12:38:31.581Z,6.23
2019-04-05T12:41:02.535Z,6.37
2019-04-05T12:43:31.981Z,7.10
2019-04-05T12:46:01.493Z,6.33
2019-04-05T12:48:30.729Z,5.83
2019-04-05T12:51:01.345Z,6.67
2019-04-05T12:53:30.815Z,6.87
2019-04-05T12:55:59.976Z,6.50
2019-04-05T12:58:29.241Z,5.67
2019-04-05T13:00:58.636Z,6.10
2019-04-05T13:03:27.483Z,8.97
2019-04-05T13:05:57.263Z,7.87
2019-04-05T13:08:26.812Z,5.60
2019-04-05T13:10:57.100Z,6.73
2019-04-05T13:13:27.453Z,6.20
2019-04-05T13:15:59.359Z,6.43
2019-04-05T13:18:30.621Z,6.67
2019-04-05T13:21:00.234Z,6.50
2019-04-05T13:23:30.188Z,17.10
2019-04-05T13:25:59.121Z,7.80
2019-04-05T13:28:28.629Z,10.20
2019-04-05T13:30:58.138Z,7.90
2019-04-05T13:33:29.060Z,7.13
2019-04-05T13:35:58.262Z,7.80
2019-04-05T13:38:29.817Z,13.23
2019-04-05T13:41:01.253Z,9.93
2019-04-05T13:43:32.019Z,7.57
2019-04-05T13:46:01.135Z,8.77
2019-04-05T13:48:30.294Z,11.77
2019-04-05T13:50:59.691Z,11.50
2019-04-05T13:53:29.298Z,7.83
2019-04-05T13:55:58.207Z,7.57
2019-04-05T13:58:27.695Z,7.67
2019-04-05T14:00:56.884Z,8.20
2019-04-05T14:03:26.214Z,13.40
2019-04-05T14:05:55.564Z,7.60
2019-04-05T14:08:24.699Z,9.57
2019-04-05T14:10:54.198Z,8.23
2019-04-05T14:13:23.607Z,9.23
2019-04-05T14:15:53.122Z,22.33
2019-04-05T14:18:22.659Z,15.93
2019-04-05T14:20:51.712Z,8.67
2019-04-05T14:23:23.964Z,11.87
2019-04-05T14:25:53.250Z,11.17
2019-04-05T14:28:22.476Z,8.20
2019-04-05T14:30:51.911Z,8.53
2019-04-05T14:33:24.537Z,10.07
2019-04-05T14:35:54.746Z,20.23
2019-04-05T14:38:23.788Z,8.30
2019-04-05T14:40:53.147Z,9.27
2019-04-05T14:43:22.718Z,8.53
2019-04-05T14:45:52.105Z,8.10
2019-04-05T14:48:21.265Z,9.87
2019-04-05T14:50:50.716Z,9.70
2019-04-05T14:53:20.316Z,7.70
2019-04-05T14:55:49.471Z,8.77
2019-04-05T14:58:19.473Z,8.10
2019-04-05T15:00:49.002Z,7.73
2019-04-05T15:03:18.310Z,11.03
2019-04-05T15:05:47.381Z,9.30
2019-04-05T15:08:20.360Z,8.13
2019-04-05T15:10:47.700Z,8.93
2019-04-05T15:13:17.192Z,8.20
2019-04-05T15:15:46.998Z,8.27
2019-04-05T15:18:16.215Z,9.10
2019-04-05T15:20:45.335Z,8.00
2019-04-05T15:23:14.586Z,8.07
2019-04-05T15:25:43.910Z,7.10
2019-04-05T15:28:13.351Z,7.17
2019-04-05T15:30:42.763Z,7.90
2019-04-05T15:33:11.983Z,6.90
2019-04-05T15:35:41.502Z,6.70
2019-04-05T15:38:11.363Z,7.17
2019-04-05T15:40:40.609Z,6.60
2019-04-05T15:43:10.216Z,6.83
2019-04-05T15:45:39.142Z,7.70
2019-04-05T15:48:08.752Z,7.60
2019-04-05T15:50:38.290Z,7.97
2019-04-05T15:53:07.764Z,8.60
2019-04-05T15:55:37.683Z,8.67
2019-04-05T15:58:07.267Z,9.00
2019-04-05T16:00:43.896Z,6.83
2019-04-05T16:03:13.478Z,6.67
2019-04-05T16:05:43.954Z,6.80
2019-04-05T16:08:14.971Z,6.73
2019-04-05T16:10:45.676Z,6.77
2019-04-05T16:13:14.959Z,6.90
2019-04-05T16:15:44.740Z,7.27
2019-04-05T16:18:14.438Z,6.90
2019-04-05T16:20:43.679Z,6.00
2019-04-05T16:23:13.445Z,6.63
2019-04-05T16:25:42.419Z,6.77
2019-04-05T16:28:11.818Z,6.40
2019-04-05T16:30:41.247Z,5.80
2019-04-05T16:33:10.918Z,6.43
2019-04-05T16:35:40.878Z,6.50
2019-04-05T16:38:10.157Z,6.97
2019-04-05T16:40:39.383Z,5.80
2019-04-05T16:43:09.011Z,6.97
2019-04-05T16:45:38.719Z,7.17
2019-04-05T16:48:07.824Z,8.37
2019-04-05T16:50:36.999Z,6.53
2019-04-05T16:53:05.980Z,6.33
2019-04-05T16:55:36.204Z,5.97
2019-04-05T16:58:05.447Z,6.73
2019-04-05T17:00:35.065Z,14.00
2019-04-05T17:03:04.430Z,10.20
2019-04-05T17:05:33.667Z,8.57
2019-04-05T17:08:03.078Z,6.40
2019-04-05T17:10:32.235Z,6.73
2019-04-05T17:13:01.380Z,6.10
2019-04-05T17:15:30.967Z,5.57
2019-04-05T17:18:00.043Z,5.80
2019-04-05T17:20:29.475Z,5.43
2019-04-05T17:22:59.038Z,6.17
2019-04-05T17:25:28.635Z,6.53
2019-04-05T17:27:58.503Z,7.10
2019-04-05T17:30:28.572Z,6.63
2019-04-05T17:32:57.780Z,7.17
2019-04-05T17:35:26.595Z,6.43
2019-04-05T17:37:55.746Z,6.43
2019-04-05T17:40:24.659Z,7.30
2019-04-05T17:42:54.047Z,9.37
2019-04-05T17:45:23.017Z,7.07
2019-04-05T17:47:52.236Z,6.47
2019-04-05T17:50:32.538Z,5.53
2019-04-05T17:53:12.343Z,5.10
2019-04-05T17:55:32.650Z,6.33
2019-04-05T17:58:03.700Z,19.33
2019-04-05T18:00:33.098Z,10.87
2019-04-05T18:03:02.824Z,6.90
2019-04-05T18:05:31.878Z,7.50
2019-04-05T18:08:01.191Z,7.43
2019-04-05T18:10:30.635Z,6.33
2019-04-05T18:12:59.552Z,6.50
2019-04-05T18:15:28.786Z,7.03
2019-04-05T18:17:57.874Z,6.07
2019-04-05T18:20:27.495Z,6.53
2019-04-05T18:22:56.735Z,5.80
2019-04-05T18:25:25.884Z,6.20
2019-04-05T18:27:55.010Z,6.17
2019-04-05T18:30:23.933Z,6.23
2019-04-05T18:32:53.265Z,5.73
2019-04-05T18:35:22.743Z,6.43
2019-04-05T18:37:52.314Z,6.90
2019-04-05T18:40:21.646Z,6.33
2019-04-05T18:42:50.934Z,7.27
2019-04-05T18:45:20.115Z,7.77
2019-04-05T18:47:50.104Z,6.47
2019-04-05T18:50:19.257Z,6.20
2019-04-05T18:52:48.503Z,7.50
2019-04-05T18:55:18.326Z,15.70
2019-04-05T18:57:47.970Z,10.63
2019-04-05T19:00:17.152Z,7.47
2019-04-05T19:02:46.326Z,6.70
2019-04-05T19:05:16.062Z,7.73
2019-04-05T19:07:45.297Z,8.20
2019-04-05T19:10:14.454Z,7.53
2019-04-05T19:12:43.930Z,7.53
2019-04-05T19:15:14.167Z,10.03
2019-04-05T19:17:43.535Z,9.10
2019-04-05T19:20:13.070Z,6.37
2019-04-05T19:22:42.482Z,6.10
2019-04-05T19:25:11.700Z,7.33
2019-04-05T19:27:41.075Z,8.37
2019-04-05T19:50:20.999Z,7.67
2019-04-05T19:52:50.490Z,7.73
2019-04-05T19:55:19.495Z,7.63
2019-04-05T19:57:48.754Z,6.03
2019-04-05T20:00:18.750Z,6.47
2019-04-05T20:02:48.282Z,6.43
2019-04-05T20:05:18.263Z,7.80
2019-04-05T20:07:47.803Z,6.60
2019-04-05T20:10:17.407Z,6.17
2019-04-05T20:12:46.816Z,6.17
2019-04-05T20:15:16.304Z,7.13
2019-04-05T20:17:45.199Z,6.27
2019-04-05T20:20:15.557Z,6.73
2019-04-05T20:22:45.047Z,6.67
2019-04-05T20:25:13.947Z,6.87
2019-04-05T20:27:43.138Z,6.63
2019-04-05T20:30:12.651Z,6.80
2019-04-05T20:32:41.875Z,40.00
2019-04-05T20:35:11.104Z,8.93
2019-04-05T20:37:40.445Z,7.43
2019-04-05T20:40:09.708Z,6.93
2019-04-05T20:42:39.115Z,7.33
2019-04-05T20:45:08.411Z,7.40
2019-04-05T20:47:37.479Z,7.77
2019-04-05T20:50:07.218Z,8.93
2019-04-05T20:52:36.126Z,8.93
2019-04-05T20:55:06.062Z,6.80
2019-04-05T20:57:35.558Z,7.60
2019-04-05T21:00:05.446Z,9.27
2019-04-05T21:02:34.702Z,10.47
2019-04-05T21:05:03.710Z,7.60
2019-04-05T21:07:33.578Z,6.67
2019-04-05T21:10:02.779Z,6.90
2019-04-05T21:12:31.916Z,6.77
2019-04-05T21:15:01.732Z,7.03
2019-04-05T21:17:30.947Z,7.20
2019-04-05T21:20:00.283Z,6.40
2019-04-05T21:22:29.897Z,7.53
2019-04-05T21:24:59.135Z,6.63
2019-04-05T21:27:28.676Z,7.13
2019-04-05T21:29:57.867Z,6.53
2019-04-05T21:32:27.439Z,6.47
2019-04-05T21:34:56.710Z,7.20
2019-04-05T21:37:25.835Z,7.00
2019-04-05T21:39:55.067Z,8.20
2019-04-05T21:42:24.000Z,7.20
2019-04-05T21:44:53.507Z,6.97
2019-04-05T21:47:22.903Z,7.47
2019-04-05T21:49:51.971Z,6.60
2019-04-05T21:52:21.375Z,7.47
2019-04-05T21:54:50.543Z,8.13
2019-04-05T21:57:19.474Z,7.67
2019-04-05T21:59:48.471Z,8.47
2019-04-05T22:02:17.749Z,8.13
2019-04-05T22:04:47.427Z,7.27
2019-04-05T22:07:17.924Z,7.90
2019-04-05T22:09:46.789Z,9.23
2019-04-05T22:12:15.935Z,8.80
2019-04-05T22:14:45.210Z,8.30
2019-04-05T22:17:14.327Z,8.23
2019-04-05T22:19:43.330Z,8.70
2019-04-05T22:22:12.502Z,8.67
2019-04-05T22:24:41.805Z,8.07
2019-04-05T22:27:11.924Z,7.90
2019-04-05T22:29:41.263Z,8.73
2019-04-05T22:32:11.584Z,7.97
2019-04-05T22:34:41.062Z,8.73
2019-04-05T22:37:10.758Z,8.37
2019-04-05T22:39:40.167Z,7.97
2019-04-05T22:42:09.372Z,9.63
2019-04-05T22:44:41.447Z,9.67
2019-04-05T22:47:09.646Z,8.70
2019-04-05T22:49:38.822Z,8.27
2019-04-05T22:52:08.717Z,7.73
2019-04-05T22:54:37.966Z,8.87
2019-04-05T22:57:07.115Z,8.07
2019-04-05T22:59:36.027Z,7.37
2019-04-05T23:02:05.308Z,7.30
2019-04-05T23:04:34.135Z,7.43
2019-04-05T23:07:03.599Z,8.03
2019-04-05T23:09:33.012Z,8.10
2019-04-05T23:12:02.705Z,7.97
2019-04-05T23:14:32.226Z,7.13
2019-04-05T23:17:01.184Z,7.97
2019-04-05T23:19:30.100Z,8.37
2019-04-05T23:22:00.963Z,8.80
2019-04-05T23:24:29.945Z,8.83
2019-04-05T23:26:59.437Z,9.10
2019-04-05T23:29:29.151Z,8.50
2019-04-05T23:31:57.986Z,8.30
2019-04-05T23:34:27.234Z,10.17
2019-04-05T23:36:56.078Z,8.73
2019-04-05T23:39:24.924Z,8.40
2019-04-05T23:41:53.755Z,8.27
2019-04-05T23:44:23.006Z,7.53
2019-04-05T23:46:52.736Z,8.00
2019-04-05T23:49:22.046Z,6.50
2019-04-05T23:51:51.235Z,7.90
2019-04-05T23:54:20.063Z,7.50
2019-04-05T23:56:49.523Z,8.50
2019-04-05T23:59:18.643Z,7.37
